createdAt,value
2018-10-11T00:00:14.624Z,13.88
2018-10-11T00:02:49.564Z,13.88
2018-10-11T00:05:24.224Z,13.89
2018-10-11T00:07:58.632Z,13.95
2018-10-11T00:10:33.924Z,14.05
2018-10-11T00:13:08.966Z,14.05
2018-10-11T00:15:43.659Z,14.06
2018-10-11T00:18:18.142Z,14.05
2018-10-11T00:20:53.153Z,14.08
2018-10-11T00:23:27.836Z,14.06
2018-10-11T00:26:02.384Z,14.05
2018-10-11T00:28:37.029Z,14.01
2018-10-11T00:31:11.896Z,14.09
2018-10-11T00:33:46.441Z,14.02
2018-10-11T00:36:20.796Z,14.04
2018-10-11T00:38:55.454Z,14.01
2018-10-11T00:41:30.336Z,13.92
2018-10-11T00:44:05.496Z,13.82
2018-10-11T00:46:40.195Z,13.65
2018-10-11T00:49:14.797Z,13.53
2018-10-11T00:51:49.448Z,13.39
2018-10-11T00:54:23.897Z,13.25
2018-10-11T00:56:58.442Z,13.11
2018-10-11T00:59:32.892Z,13.00
2018-10-11T01:02:07.511Z,12.91
2018-10-11T01:04:42.028Z,12.78
2018-10-11T01:07:17.242Z,12.62
2018-10-11T01:09:51.792Z,12.54
2018-10-11T01:12:26.421Z,12.48
2018-10-11T01:15:00.918Z,12.36
2018-10-11T01:17:35.335Z,12.22
2018-10-11T01:20:10.958Z,12.07
2018-10-11T01:22:49.601Z,11.94
2018-10-11T01:25:24.107Z,11.93
2018-10-11T01:27:58.915Z,11.82
2018-10-11T01:30:33.728Z,11.76
2018-10-11T01:33:08.448Z,11.74
2018-10-11T01:35:42.916Z,11.66
2018-10-11T01:38:17.196Z,11.57
2018-10-11T01:40:51.577Z,11.44
2018-10-11T01:43:26.009Z,11.50
2018-10-11T01:46:00.688Z,11.45
2018-10-11T01:48:35.181Z,11.44
2018-10-11T01:51:10.244Z,11.38
2018-10-11T01:53:45.084Z,11.41
2018-10-11T01:56:19.464Z,11.34
2018-10-11T01:58:54.180Z,11.28
2018-10-11T02:01:28.920Z,11.16
2018-10-11T02:04:03.424Z,11.05
2018-10-11T02:06:38.351Z,10.98
2018-10-11T02:09:13.017Z,10.94
2018-10-11T02:11:47.480Z,10.84
2018-10-11T02:14:23.436Z,10.77
2018-10-11T02:16:58.231Z,10.72
2018-10-11T02:19:32.620Z,10.69
2018-10-11T02:22:07.827Z,10.66
2018-10-11T02:24:42.094Z,10.73
2018-10-11T02:27:17.184Z,10.64
2018-10-11T02:29:51.619Z,10.64
2018-10-11T02:32:26.588Z,10.63
2018-10-11T02:35:00.944Z,10.58
2018-10-11T02:37:35.687Z,10.58
2018-10-11T02:40:10.401Z,10.58
2018-10-11T02:42:45.305Z,10.51
2018-10-11T02:45:19.837Z,10.57
2018-10-11T02:47:54.496Z,10.54
2018-10-11T02:50:29.042Z,10.64
2018-10-11T02:53:03.567Z,10.46
2018-10-11T02:55:38.927Z,10.41
2018-10-11T02:58:24.531Z,10.37
2018-10-11T03:00:59.032Z,10.60
2018-10-11T03:03:33.472Z,10.60
2018-10-11T03:06:07.857Z,10.48
2018-10-11T03:08:44.301Z,10.55
2018-10-11T03:11:18.695Z,10.39
2018-10-11T03:13:53.453Z,10.26
2018-10-11T03:16:28.160Z,10.26
2018-10-11T03:19:02.987Z,10.32
2018-10-11T03:21:37.875Z,10.25
2018-10-11T03:24:12.856Z,10.24
2018-10-11T03:26:47.416Z,10.19
2018-10-11T03:29:22.183Z,10.15
2018-10-11T03:31:57.093Z,10.12
2018-10-11T03:34:31.369Z,10.04
2018-10-11T03:37:06.447Z,10.04
2018-10-11T03:39:41.215Z,9.94
2018-10-11T03:42:15.918Z,9.94
2018-10-11T03:44:50.400Z,9.90
2018-10-11T03:47:25.215Z,9.96
2018-10-11T03:49:59.536Z,9.86
2018-10-11T03:52:34.021Z,9.97
2018-10-11T03:55:08.843Z,9.88
2018-10-11T03:57:43.309Z,9.95
2018-10-11T04:00:18.026Z,9.92
2018-10-11T04:02:52.900Z,9.91
2018-10-11T04:05:27.372Z,9.69
2018-10-11T04:08:02.148Z,9.62
2018-10-11T04:10:36.672Z,9.61
2018-10-11T04:13:11.065Z,9.63
2018-10-11T04:15:45.873Z,9.58
2018-10-11T04:18:29.383Z,9.54
2018-10-11T04:21:04.338Z,9.55
2018-10-11T04:23:39.548Z,9.57
2018-10-11T04:26:14.016Z,9.53
2018-10-11T04:28:48.392Z,9.40
2018-10-11T04:31:22.808Z,9.39
2018-10-11T04:33:57.824Z,9.41
2018-10-11T04:36:32.740Z,9.40
2018-10-11T04:39:09.524Z,9.34
2018-10-11T04:41:44.119Z,9.35
2018-10-11T04:44:18.631Z,9.28
2018-10-11T04:46:53.202Z,9.27
2018-10-11T04:49:27.688Z,9.24
2018-10-11T04:52:02.471Z,9.17
2018-10-11T04:54:36.949Z,9.13
2018-10-11T04:57:12.093Z,9.06
2018-10-11T04:59:49.941Z,9.03
2018-10-11T05:02:24.323Z,9.01
2018-10-11T05:04:58.952Z,8.91
2018-10-11T05:07:33.778Z,8.93
2018-10-11T05:10:08.381Z,8.87
2018-10-11T05:12:43.177Z,8.90
2018-10-11T05:15:17.976Z,8.92
2018-10-11T05:17:52.527Z,8.89
2018-10-11T05:20:27.578Z,8.87
2018-10-11T05:23:02.440Z,8.80
2018-10-11T05:25:37.361Z,8.86
2018-10-11T05:28:12.284Z,8.83
2018-10-11T05:30:46.687Z,8.83
2018-10-11T05:33:21.106Z,8.78
2018-10-11T05:35:56.196Z,8.75
2018-10-11T05:38:30.504Z,8.76
2018-10-11T05:41:05.315Z,8.81
2018-10-11T05:43:39.858Z,8.88
2018-10-11T05:46:25.747Z,8.85
2018-10-11T05:49:01.258Z,8.92
2018-10-11T05:51:35.923Z,9.03
2018-10-11T05:54:10.541Z,9.06
2018-10-11T05:56:45.807Z,9.03
2018-10-11T05:59:20.620Z,9.08
2018-10-11T06:01:56.103Z,9.19
2018-10-11T06:04:31.181Z,9.13
2018-10-11T06:07:07.533Z,9.15
2018-10-11T06:09:43.754Z,9.14
2018-10-11T06:12:21.359Z,9.19
2018-10-11T06:14:56.793Z,9.22
2018-10-11T06:17:31.675Z,9.33
2018-10-11T06:20:07.227Z,9.37
2018-10-11T06:22:43.884Z,9.30
2018-10-11T06:25:20.660Z,9.32
2018-10-11T06:27:56.545Z,9.41
2018-10-11T06:30:32.737Z,9.47
2018-10-11T06:33:08.260Z,9.55
2018-10-11T06:35:46.444Z,9.56
2018-10-11T06:38:21.743Z,9.59
2018-10-11T06:40:56.569Z,9.65
2018-10-11T06:43:31.649Z,9.71
2018-10-11T06:46:07.663Z,9.82
2018-10-11T06:48:42.628Z,9.92
2018-10-11T06:51:17.374Z,9.93
2018-10-11T06:53:52.348Z,9.94
2018-10-11T06:56:27.019Z,10.08
2018-10-11T07:02:46.602Z,10.23
2018-10-11T07:05:27.646Z,10.36
2018-10-11T07:08:11.407Z,10.54
2018-10-11T07:10:56.133Z,10.68
2018-10-11T07:13:52.131Z,10.83
2018-10-11T07:16:30.535Z,10.99
2018-10-11T07:19:08.722Z,11.22
2018-10-11T07:21:50.448Z,11.45
2018-10-11T07:24:31.769Z,11.67
2018-10-11T07:27:09.824Z,11.78
2018-10-11T07:29:55.110Z,11.98
2018-10-11T07:32:38.149Z,12.15
2018-10-11T07:35:16.881Z,12.34
2018-10-11T07:37:56.087Z,12.61
2018-10-11T07:40:34.837Z,12.89
2018-10-11T07:43:21.966Z,13.18
2018-10-11T07:46:10.325Z,13.39
2018-10-11T07:49:34.900Z,13.65
2018-10-11T07:59:22.413Z,14.72
2018-10-11T08:05:17.263Z,15.28
2018-10-11T08:08:01.890Z,15.58
2018-10-11T08:10:56.420Z,15.81
2018-10-11T08:13:43.484Z,15.98
2018-10-11T08:16:34.433Z,16.19
2018-10-11T08:19:29.145Z,16.37
2018-10-11T08:22:04.455Z,16.61
2018-10-11T08:24:47.982Z,16.86
2018-10-11T08:27:26.655Z,17.17
2018-10-11T08:30:01.274Z,17.43
2018-10-11T08:32:36.253Z,17.63
2018-10-11T08:35:11.496Z,17.86
2018-10-11T08:37:46.377Z,18.09
2018-10-11T08:40:21.015Z,18.32
2018-10-11T08:42:55.465Z,18.62
2018-10-11T08:45:30.521Z,18.83
2018-10-11T08:48:05.390Z,18.99
2018-10-11T08:50:40.282Z,19.16
2018-10-11T08:53:15.092Z,19.41
2018-10-11T08:55:50.035Z,19.61
2018-10-11T08:58:24.643Z,19.90
2018-10-11T09:00:59.276Z,20.09
2018-10-11T09:03:34.300Z,20.30
2018-10-11T09:06:09.508Z,20.52
2018-10-11T09:08:44.325Z,20.59
2018-10-11T09:11:19.090Z,20.75
2018-10-11T09:13:54.376Z,20.97
2018-10-11T09:16:29.474Z,21.10
2018-10-11T09:19:04.123Z,21.18
2018-10-11T09:21:38.724Z,21.37
2018-10-11T09:24:13.404Z,21.64
2018-10-11T09:26:48.152Z,21.92
2018-10-11T09:29:22.567Z,22.02
2018-10-11T09:31:57.618Z,22.22
2018-10-11T09:34:32.293Z,22.24
2018-10-11T09:37:07.891Z,22.31
2018-10-11T09:39:42.621Z,22.36
2018-10-11T09:42:17.535Z,22.56
2018-10-11T09:44:52.344Z,22.48
2018-10-11T09:47:27.434Z,22.49
2018-10-11T09:50:02.607Z,22.57
2018-10-11T09:52:37.352Z,22.53
2018-10-11T09:55:12.516Z,22.71
2018-10-11T09:57:46.943Z,22.76
2018-10-11T10:00:27.089Z,23.09
2018-10-11T10:03:01.976Z,23.55
2018-10-11T10:05:36.724Z,23.79
2018-10-11T10:08:11.196Z,23.89
2018-10-11T10:10:45.855Z,23.93
2018-10-11T10:13:20.560Z,23.92
2018-10-11T10:15:55.440Z,23.98
2018-10-11T10:18:30.631Z,23.99
2018-10-11T10:21:05.616Z,24.17
2018-10-11T10:23:40.299Z,24.17
2018-10-11T10:26:14.756Z,24.19
2018-10-11T10:28:49.604Z,24.13
2018-10-11T10:31:23.905Z,24.13
2018-10-11T10:33:58.716Z,24.08
2018-10-11T10:36:33.479Z,24.10
2018-10-11T10:39:08.668Z,24.17
2018-10-11T10:41:43.308Z,24.16
2018-10-11T10:44:17.839Z,24.25
2018-10-11T10:46:53.419Z,24.26
2018-10-11T10:49:28.689Z,24.29
2018-10-11T10:52:03.117Z,24.41
2018-10-11T10:54:59.274Z,24.53
2018-10-11T10:57:33.936Z,24.89
2018-10-11T11:00:09.015Z,24.88
2018-10-11T11:02:43.440Z,24.99
2018-10-11T11:05:19.525Z,25.30
2018-10-11T11:07:54.147Z,25.55
2018-10-11T11:10:29.008Z,25.61
2018-10-11T11:13:03.450Z,25.51
2018-10-11T11:15:38.141Z,25.68
2018-10-11T11:18:12.701Z,25.74
2018-10-11T11:20:48.111Z,25.87
2018-10-11T11:23:22.693Z,25.97
2018-10-11T11:25:57.301Z,26.02
2018-10-11T11:28:31.832Z,25.94
2018-10-11T11:31:06.542Z,26.01
2018-10-11T11:33:41.239Z,26.15
2018-10-11T11:36:15.696Z,26.40
2018-10-11T11:38:50.148Z,26.58
2018-10-11T11:41:24.917Z,26.68
2018-10-11T11:44:00.087Z,26.69
2018-10-11T11:46:35.417Z,26.68
2018-10-11T11:49:10.380Z,26.68
2018-10-11T11:51:45.040Z,26.87
2018-10-11T11:54:21.259Z,26.97
2018-10-11T11:56:56.304Z,27.00
2018-10-11T11:59:31.211Z,27.10
2018-10-11T12:02:09.409Z,26.90
2018-10-11T12:04:52.208Z,26.96
2018-10-11T12:07:27.016Z,27.01
2018-10-11T12:10:01.789Z,27.01
2018-10-11T12:13:09.366Z,26.99
2018-10-11T12:15:44.568Z,26.90
2018-10-11T12:18:19.227Z,26.97
2018-10-11T12:20:53.904Z,27.15
2018-10-11T12:23:28.919Z,27.34
2018-10-11T12:26:03.420Z,27.37
2018-10-11T12:28:37.893Z,27.42
2018-10-11T12:31:12.641Z,27.13
2018-10-11T12:33:47.331Z,27.16
2018-10-11T12:36:22.282Z,27.24
2018-10-11T12:38:57.295Z,27.26
2018-10-11T12:41:32.236Z,27.36
2018-10-11T12:44:06.992Z,27.37
2018-10-11T12:46:41.639Z,27.23
2018-10-11T12:49:16.261Z,27.21
2018-10-11T12:51:51.542Z,27.34
2018-10-11T12:54:26.352Z,27.34
2018-10-11T12:57:00.901Z,27.26
2018-10-11T12:59:35.592Z,27.38
2018-10-11T13:02:10.217Z,27.37
2018-10-11T13:04:44.721Z,27.41
2018-10-11T13:07:19.596Z,27.42
2018-10-11T13:09:54.382Z,27.58
2018-10-11T13:12:28.739Z,27.61
2018-10-11T13:15:04.477Z,27.55
2018-10-11T13:17:42.814Z,27.43
2018-10-11T13:20:13.688Z,27.39
2018-10-11T13:22:48.259Z,27.47
2018-10-11T13:25:23.849Z,27.56
2018-10-11T13:27:58.525Z,27.50
2018-10-11T13:30:32.947Z,27.26
2018-10-11T13:33:08.064Z,26.89
2018-10-11T13:35:42.491Z,26.46
2018-10-11T13:38:17.176Z,26.15
2018-10-11T13:40:55.812Z,25.76
2018-10-11T13:43:27.066Z,25.47
2018-10-11T13:46:02.994Z,25.29
2018-10-11T13:48:36.563Z,25.23
2018-10-11T13:51:11.541Z,25.03
2018-10-11T13:53:49.948Z,24.79
2018-10-11T13:56:20.806Z,24.57
2018-10-11T13:58:55.812Z,24.37
2018-10-11T14:01:30.415Z,24.25
2018-10-11T14:04:05.699Z,24.30
2018-10-11T14:06:40.688Z,24.36
2018-10-11T14:09:16.546Z,24.28
2018-10-11T14:11:51.943Z,24.43
2018-10-11T14:14:26.359Z,24.54
2018-10-11T14:17:00.681Z,24.62
2018-10-11T14:19:35.160Z,24.75
2018-10-11T14:22:09.781Z,24.90
2018-10-11T14:24:44.244Z,24.97
2018-10-11T14:27:19.292Z,25.16
2018-10-11T14:29:54.122Z,25.23
2018-10-11T14:32:28.974Z,25.24
2018-10-11T14:35:03.641Z,25.28
2018-10-11T14:37:38.497Z,25.21
2018-10-11T14:40:13.103Z,25.14
2018-10-11T14:42:48.162Z,25.13
2018-10-11T14:45:22.527Z,25.17
2018-10-11T14:47:56.988Z,25.17
2018-10-11T14:50:32.369Z,25.16
2018-10-11T14:53:07.215Z,24.94
2018-10-11T14:55:42.280Z,24.87
2018-10-11T14:58:17.177Z,24.84
2018-10-11T15:00:51.636Z,24.78
2018-10-11T15:03:26.704Z,24.60
2018-10-11T15:06:01.460Z,24.21
2018-10-11T15:08:36.841Z,23.94
2018-10-11T15:11:11.567Z,23.64
2018-10-11T15:13:46.706Z,23.35
2018-10-11T15:16:21.328Z,23.10
2018-10-11T15:18:56.257Z,22.76
2018-10-11T15:21:30.681Z,22.50
2018-10-11T15:24:05.465Z,22.40
2018-10-11T15:26:40.151Z,22.21
2018-10-11T15:29:14.904Z,22.05
2018-10-11T15:31:49.984Z,21.85
2018-10-11T15:34:24.408Z,21.80
2018-10-11T15:36:59.036Z,21.76
2018-10-11T15:39:33.352Z,21.68
2018-10-11T15:42:08.369Z,21.71
2018-10-11T15:44:43.513Z,21.69
2018-10-11T15:47:18.047Z,21.53
2018-10-11T15:49:52.654Z,21.41
2018-10-11T15:52:27.399Z,21.30
2018-10-11T15:55:02.019Z,21.28
2018-10-11T15:57:36.575Z,21.17
2018-10-11T16:00:11.381Z,20.99
2018-10-11T16:02:45.672Z,20.91
2018-10-11T16:05:20.684Z,20.89
2018-10-11T16:07:55.565Z,20.87
2018-10-11T16:10:30.299Z,20.77
2018-10-11T16:13:04.644Z,20.70
2018-10-11T16:15:38.937Z,20.55
2018-10-11T16:18:13.608Z,20.37
2018-10-11T16:20:48.786Z,20.23
2018-10-11T16:23:29.376Z,20.02
2018-10-11T16:26:04.805Z,19.85
2018-10-11T16:28:39.144Z,19.73
2018-10-11T16:31:13.734Z,19.56
2018-10-11T16:33:48.221Z,19.38
2018-10-11T16:36:23.659Z,19.18
2018-10-11T16:38:58.832Z,19.13
2018-10-11T16:41:33.420Z,19.01
2018-10-11T16:44:07.858Z,18.93
2018-10-11T16:46:42.732Z,18.83
2018-10-11T16:49:17.283Z,18.69
2018-10-11T16:51:52.190Z,18.58
2018-10-11T16:54:27.086Z,18.41
2018-10-11T16:57:01.824Z,18.28
2018-10-11T16:59:36.384Z,18.16
2018-10-11T17:02:13.671Z,18.04
2018-10-11T17:04:48.839Z,17.97
2018-10-11T17:07:23.643Z,17.88
2018-10-11T17:09:58.422Z,17.80
2018-10-11T17:12:33.521Z,17.74
2018-10-11T17:15:08.269Z,17.72
2018-10-11T17:17:43.264Z,17.71
2018-10-11T17:20:18.024Z,17.66
2018-10-11T17:22:53.187Z,17.58
2018-10-11T17:25:27.972Z,17.47
2018-10-11T17:28:02.824Z,17.37
2018-10-11T17:30:37.565Z,17.31
2018-10-11T17:33:12.665Z,17.26
2018-10-11T17:35:50.397Z,17.23
2018-10-11T17:38:25.367Z,17.21
2018-10-11T17:41:01.016Z,17.17
2018-10-11T17:43:35.954Z,17.16
2018-10-11T17:46:10.372Z,17.14
2018-10-11T17:48:44.773Z,17.08
2018-10-11T17:51:19.480Z,17.06
2018-10-11T17:53:54.188Z,17.01
2018-10-11T17:56:31.296Z,16.98
2018-10-11T17:59:07.772Z,16.87
2018-10-11T18:01:42.792Z,16.84
2018-10-11T18:04:17.482Z,16.85
2018-10-11T18:06:52.098Z,16.88
2018-10-11T18:09:26.703Z,16.92
2018-10-11T18:12:01.256Z,16.91
2018-10-11T18:14:35.788Z,16.93
2018-10-11T18:17:10.654Z,16.92
2018-10-11T18:19:45.205Z,16.89
2018-10-11T18:22:20.702Z,16.84
2018-10-11T18:24:55.288Z,16.86
2018-10-11T18:27:30.061Z,16.82
2018-10-11T18:30:05.906Z,16.71
2018-10-11T18:32:40.583Z,16.65
2018-10-11T18:35:18.369Z,16.57
2018-10-11T18:37:58.364Z,16.57
2018-10-11T18:40:36.404Z,16.54
2018-10-11T18:43:11.152Z,16.46
2018-10-11T18:45:45.808Z,16.46
2018-10-11T18:48:20.273Z,16.49
2018-10-11T18:50:54.809Z,16.46
2018-10-11T18:53:30.608Z,16.40
2018-10-11T18:56:05.948Z,16.42
2018-10-11T18:58:40.516Z,16.42
2018-10-11T19:01:15.088Z,16.37
2018-10-11T19:03:49.692Z,16.35
2018-10-11T19:06:24.573Z,16.31
2018-10-11T19:08:59.416Z,16.25
2018-10-11T19:11:34.209Z,16.26
2018-10-11T19:14:09.427Z,16.25
2018-10-11T19:16:43.884Z,16.24
2018-10-11T19:19:18.882Z,16.23
2018-10-11T19:22:01.806Z,16.17
2018-10-11T19:24:36.684Z,16.10
2018-10-11T19:27:16.414Z,16.04
2018-10-11T19:29:59.830Z,15.97
2018-10-11T19:32:38.496Z,15.90
2018-10-11T19:35:13.287Z,15.85
2018-10-11T19:37:47.840Z,15.79
2018-10-11T19:40:22.295Z,15.74
2018-10-11T19:42:57.068Z,15.74
2018-10-11T19:45:32.564Z,15.73
2018-10-11T19:48:07.013Z,15.71
2018-10-11T19:50:41.992Z,15.78
2018-10-11T19:53:16.688Z,15.74
2018-10-11T19:55:51.623Z,15.69
2018-10-11T19:58:26.039Z,15.71
2018-10-11T20:01:01.142Z,15.75
2018-10-11T20:03:36.061Z,15.72
2018-10-11T20:06:10.927Z,15.63
2018-10-11T20:08:46.308Z,15.61
2018-10-11T20:11:21.253Z,15.57
2018-10-11T20:13:55.736Z,15.55
2018-10-11T20:16:30.394Z,15.51
2018-10-11T20:19:05.493Z,15.52
2018-10-11T20:21:40.510Z,15.50
2018-10-11T20:24:15.352Z,15.51
2018-10-11T20:26:49.973Z,15.50
2018-10-11T20:29:24.543Z,15.51
2018-10-11T20:31:59.324Z,15.51
2018-10-11T20:34:33.860Z,15.52
2018-10-11T20:37:09.248Z,15.57
2018-10-11T20:39:44.167Z,15.58
2018-10-11T20:42:19.229Z,15.59
2018-10-11T20:44:53.617Z,15.59
2018-10-11T20:47:31.800Z,15.59
2018-10-11T20:50:06.828Z,15.62
2018-10-11T20:52:41.296Z,15.61
2018-10-11T20:55:15.880Z,15.60
2018-10-11T20:57:50.713Z,15.64
2018-10-11T21:00:25.265Z,15.60
2018-10-11T21:02:59.882Z,15.56
2018-10-11T21:05:34.729Z,15.57
2018-10-11T21:08:09.584Z,15.60
2018-10-11T21:10:44.024Z,15.61
2018-10-11T21:13:18.888Z,15.62
2018-10-11T21:15:53.277Z,15.64
2018-10-11T21:18:27.973Z,15.64
2018-10-11T21:21:02.923Z,15.62
2018-10-11T21:23:37.605Z,15.62
2018-10-11T21:26:12.256Z,15.63
2018-10-11T21:28:47.082Z,15.65
2018-10-11T21:31:22.429Z,15.64
2018-10-11T21:33:57.268Z,15.61
2018-10-11T21:36:32.284Z,15.61
2018-10-11T21:39:08.950Z,15.58
2018-10-11T21:41:44.417Z,15.55
2018-10-11T21:44:18.973Z,15.57
2018-10-11T21:46:53.667Z,15.55
2018-10-11T21:49:28.504Z,15.52
2018-10-11T21:52:02.958Z,15.52
2018-10-11T21:54:40.344Z,15.55
2018-10-11T21:57:16.673Z,15.56
2018-10-11T21:59:53.942Z,15.56
2018-10-11T22:02:28.671Z,15.56
2018-10-11T22:05:03.388Z,15.52
2018-10-11T22:07:38.244Z,15.53
2018-10-11T22:10:12.792Z,15.51
2018-10-11T22:12:47.615Z,15.51
2018-10-11T22:15:22.499Z,15.50
2018-10-11T22:17:57.160Z,15.53
2018-10-11T22:20:32.092Z,15.53
2018-10-11T22:23:08.524Z,15.51
2018-10-11T22:25:43.196Z,15.49
2018-10-11T22:28:17.981Z,15.49
2018-10-11T22:30:52.847Z,15.47
2018-10-11T22:33:27.807Z,15.47
2018-10-11T22:36:02.281Z,15.43
2018-10-11T22:38:37.404Z,15.45
2018-10-11T22:41:12.413Z,15.43
2018-10-11T22:43:47.452Z,15.45
2018-10-11T22:46:22.172Z,15.47
2018-10-11T22:48:56.812Z,15.45
2018-10-11T22:51:31.123Z,15.40
2018-10-11T22:54:05.928Z,15.34
2018-10-11T22:56:40.696Z,15.33
2018-10-11T22:59:15.119Z,15.34
2018-10-11T23:01:49.611Z,15.37
2018-10-11T23:04:24.367Z,15.38
2018-10-11T23:06:58.905Z,15.37
2018-10-11T23:09:33.416Z,15.38
2018-10-11T23:12:07.930Z,15.37
2018-10-11T23:14:42.490Z,15.35
2018-10-11T23:17:17.732Z,15.34
2018-10-11T23:19:52.591Z,15.33
2018-10-11T23:22:26.969Z,15.32
2018-10-11T23:25:01.507Z,15.26
2018-10-11T23:27:35.863Z,15.23
2018-10-11T23:30:11.116Z,15.19
2018-10-11T23:32:45.732Z,15.13
2018-10-11T23:35:20.620Z,15.09
2018-10-11T23:37:55.741Z,15.11
2018-10-11T23:40:30.761Z,15.10
2018-10-11T23:43:05.936Z,15.13
2018-10-11T23:45:40.721Z,15.11
2018-10-11T23:48:15.529Z,15.15
2018-10-11T23:50:50.219Z,15.12
2018-10-11T23:53:24.700Z,15.08
2018-10-11T23:55:59.519Z,15.10
2018-10-11T23:58:33.960Z,15.02
